Cafferata, Argentina
Current Conditions -  °F | °C
As of 6:00 PM on Friday 28 Nov 2014 (Local Time) from SAAR Reporting Station
Clear Clear  
Wind Chill: 82°   Ceiling: Unl
Heat Index: 83°   Visibility: 6mi
Dew Point: 63°   Wind: 15mph
Humidity: 51%   Direction: 70°ENE
Pressure: 29.77"   Gusts: NA
Location:  33.37°S, 62.07°W
Report Text: SAAR 282100Z 07013KT CAVOK 28/17 Q1008
Loading
Personal Weather Stations






























Interactive Weather Map New forecast layout! Learn more

10-Day Weather Forecast

Advertisements
Track Severe Weather on mobile